Time;durP1;ratioP1;P1;durP2;ratioP2;P2;SDS_P1;SDS_P2;PMS_P1;PMS_P2;Temp;Humidity;BMP_temperature;BMP_pressure;BME280_temperature;BME280_humidity;BME280_pressure;Samples;Min_cycle;Max_cycle;Signal;HPM_P1;HPM_P2
2022/03/17 00:00:31;;;;;;;32.43;23.90;;;;;;;7.50;100.00;102438.97;5061637;28;20242;-52
2022/03/17 00:02:57;;;;;;;34.37;25.43;;;;;;;7.39;100.00;102451.63;5065136;28;20227;-51
2022/03/17 00:05:23;;;;;;;33.70;25.80;;;;;;;7.34;100.00;102453.16;5065266;28;20259;-53
2022/03/17 00:07:49;;;;;;;37.00;27.17;;;;;;;7.35;100.00;102450.59;5058320;28;20993;-53
2022/03/17 00:10:17;;;;;;;36.27;27.50;;;;;;;7.22;100.00;102453.53;5062546;28;20242;-53
2022/03/17 00:12:46;;;;;;;39.23;25.63;;;;;;;7.23;100.00;102462.28;5067599;28;20243;-53
2022/03/17 00:15:13;;;;;;;39.90;26.70;;;;;;;7.06;100.00;102474.66;5065596;28;20259;-52
2022/03/17 00:17:40;;;;;;;38.00;26.90;;;;;;;7.12;100.00;102465.34;5063123;28;20235;-52
2022/03/17 00:20:10;;;;;;;42.30;28.40;;;;;;;7.37;100.00;102468.94;5069139;28;20239;-52
2022/03/17 00:22:36;;;;;;;36.57;28.03;;;;;;;7.43;100.00;102466.56;5057181;28;20265;-52
2022/03/17 00:25:05;;;;;;;36.80;27.00;;;;;;;7.32;100.00;102467.88;5072387;28;20265;-52
2022/03/17 00:27:31;;;;;;;39.37;28.37;;;;;;;7.18;100.00;102457.75;5060532;28;20231;-52
2022/03/17 00:29:59;;;;;;;33.67;25.47;;;;;;;7.43;100.00;102468.31;5048762;28;20384;-52
2022/03/17 00:32:26;;;;;;;38.27;27.47;;;;;;;7.15;100.00;102468.06;5053887;28;20258;-52
2022/03/17 00:37:37;;;;;;;35.03;25.47;;;;;;;7.24;100.00;102462.34;5059009;28;20242;-53
2022/03/17 00:40:04;;;;;;;35.13;26.70;;;;;;;7.08;100.00;102479.09;5062047;28;20421;-53
2022/03/17 00:42:30;;;;;;;37.83;27.33;;;;;;;7.24;100.00;102469.31;5060870;28;20231;-52
2022/03/17 00:44:57;;;;;;;37.60;26.73;;;;;;;7.08;100.00;102466.03;5063469;28;20644;-53
2022/03/17 00:47:24;;;;;;;36.00;26.83;;;;;;;6.97;100.00;102467.31;5057644;28;20323;-52
2022/03/17 00:49:51;;;;;;;34.80;24.50;;;;;;;7.17;100.00;102471.66;5052973;28;20280;-52
2022/03/17 00:52:20;;;;;;;40.00;27.30;;;;;;;7.14;100.00;102475.88;5058827;28;20814;-53
2022/03/17 00:54:47;;;;;;;33.07;25.30;;;;;;;7.23;100.00;102459.66;5057713;28;20287;-52
2022/03/17 00:57:13;;;;;;;36.23;26.77;;;;;;;7.16;100.00;102462.03;5057201;28;20261;-52
2022/03/17 00:59:40;;;;;;;35.63;26.13;;;;;;;7.12;100.00;102460.09;5062740;28;20292;-53
2022/03/17 01:02:08;;;;;;;35.47;26.63;;;;;;;7.15;100.00;102457.63;5065924;28;20734;-52
2022/03/17 01:04:36;;;;;;;37.23;27.03;;;;;;;7.15;100.00;102459.34;5068409;28;20284;-53
2022/03/17 01:07:03;;;;;;;41.23;27.37;;;;;;;7.15;100.00;102452.41;5061512;28;20239;-55
2022/03/17 01:09:29;;;;;;;37.50;27.73;;;;;;;7.14;100.00;102457.59;5063880;28;20711;-53
2022/03/17 01:11:56;;;;;;;38.33;25.77;;;;;;;7.23;100.00;102459.66;5060690;28;20300;-51
2022/03/17 01:14:22;;;;;;;39.17;28.00;;;;;;;7.07;100.00;102448.59;5062272;28;20255;-52
2022/03/17 01:16:50;;;;;;;36.90;26.00;;;;;;;7.16;100.00;102456.81;5058935;28;20751;-52
2022/03/17 01:19:19;;;;;;;37.57;27.33;;;;;;;7.07;100.00;102459.03;5062685;28;20340;-52
2022/03/17 01:21:46;;;;;;;36.20;27.47;;;;;;;6.79;100.00;102461.34;5062163;28;20235;-53
2022/03/17 01:24:13;;;;;;;37.70;27.93;;;;;;;6.74;100.00;102452.41;5058546;28;20235;-52
2022/03/17 01:26:39;;;;;;;35.77;27.47;;;;;;;6.84;100.00;102450.25;5061344;28;20227;-53
2022/03/17 01:29:06;;;;;;;42.33;28.70;;;;;;;6.81;100.00;102457.06;5058986;27;20259;-53
2022/03/17 01:31:32;;;;;;;38.53;27.80;;;;;;;6.93;100.00;102454.97;5061776;27;20239;-52
2022/03/17 01:33:58;;;;;;;40.20;28.67;;;;;;;6.78;100.00;102450.00;5060194;28;20308;-52
2022/03/17 01:36:25;;;;;;;38.40;28.60;;;;;;;6.82;100.00;102453.66;5066518;28;20307;-53
2022/03/17 01:38:52;;;;;;;41.40;30.53;;;;;;;6.59;100.00;102448.31;5057309;28;20246;-52
2022/03/17 01:41:18;;;;;;;41.97;29.63;;;;;;;6.59;100.00;102452.66;5063085;28;20265;-52
2022/03/17 01:43:45;;;;;;;39.13;29.03;;;;;;;6.77;100.00;102450.81;5056024;28;20228;-52
2022/03/17 01:46:14;;;;;;;37.63;29.37;;;;;;;6.72;100.00;102443.63;5062726;28;20235;-52
2022/03/17 01:48:40;;;;;;;36.43;28.10;;;;;;;6.85;100.00;102446.84;5065872;28;20231;-52
2022/03/17 01:51:07;;;;;;;39.90;27.33;;;;;;;6.83;100.00;102448.47;5058333;28;20262;-52
2022/03/17 01:53:33;;;;;;;36.97;27.67;;;;;;;6.80;100.00;102445.72;5064040;28;20256;-52
2022/03/17 01:56:01;;;;;;;39.43;28.23;;;;;;;6.83;100.00;102443.25;5060061;28;20220;-53
2022/03/17 01:58:28;;;;;;;41.30;30.13;;;;;;;6.92;100.00;102438.44;5063702;28;20232;-53
2022/03/17 02:00:54;;;;;;;37.70;27.93;;;;;;;6.99;100.00;102433.47;5073987;28;20234;-52
2022/03/17 02:03:20;;;;;;;40.67;30.30;;;;;;;7.00;100.00;102436.13;5065135;28;20265;-51
2022/03/17 02:05:47;;;;;;;35.33;28.27;;;;;;;6.93;100.00;102432.38;5062534;28;20262;-52
2022/03/17 02:08:14;;;;;;;40.53;28.70;;;;;;;6.71;100.00;102431.44;5061639;28;20247;-51
2022/03/17 02:13:22;;;;;;;38.50;28.97;;;;;;;6.93;100.00;102434.09;5062477;28;20241;-52
2022/03/17 02:15:50;;;;;;;37.70;27.40;;;;;;;6.98;100.00;102426.44;5070980;28;20223;-52
2022/03/17 02:18:17;;;;;;;40.93;31.30;;;;;;;6.73;100.00;102430.63;5063204;28;20304;-52
2022/03/17 02:20:44;;;;;;;40.53;29.83;;;;;;;6.78;100.00;102433.47;5063316;28;20243;-53
2022/03/17 02:25:56;;;;;;;42.17;30.13;;;;;;;6.56;100.00;102427.31;5062431;28;20340;-52
2022/03/17 02:28:23;;;;;;;40.83;30.57;;;;;;;6.26;100.00;102420.78;5067639;28;20315;-53
2022/03/17 02:30:50;;;;;;;44.60;32.93;;;;;;;6.45;100.00;102423.34;5056972;28;20231;-53
2022/03/17 02:33:17;;;;;;;39.70;30.10;;;;;;;6.50;100.00;102420.97;5063824;28;20246;-53
2022/03/17 02:35:44;;;;;;;43.53;31.97;;;;;;;6.71;100.00;102420.97;5064636;28;20265;-53
2022/03/17 02:38:13;;;;;;;45.93;30.67;;;;;;;6.68;99.01;102414.78;5066159;28;20239;-52
2022/03/17 02:40:41;;;;;;;41.50;29.63;;;;;;;6.61;100.00;102419.69;5059976;28;20289;-51
2022/03/17 02:43:08;;;;;;;40.93;28.40;;;;;;;6.80;99.51;102410.91;5067621;28;20258;-52
2022/03/17 02:45:36;;;;;;;44.30;30.90;;;;;;;6.54;99.54;102421.16;5065519;28;20710;-53
2022/03/17 02:48:02;;;;;;;43.87;30.80;;;;;;;6.49;100.00;102409.63;5065347;28;22244;-54
2022/03/17 02:50:29;;;;;;;39.30;29.53;;;;;;;6.66;100.00;102407.72;5065126;28;20259;-53
2022/03/17 02:52:56;;;;;;;41.47;30.00;;;;;;;6.49;100.00;102409.63;5063161;28;20304;-53
2022/03/17 02:58:45;;;;;;;42.50;31.47;;;;;;;6.44;100.00;102408.53;5043936;28;20307;-52
2022/03/17 03:01:12;;;;;;;40.30;30.30;;;;;;;6.65;100.00;102405.94;5050159;28;20656;-53
2022/03/17 03:03:38;;;;;;;43.60;32.13;;;;;;;6.66;97.93;102405.09;5064902;28;20266;-52
2022/03/17 03:06:04;;;;;;;42.33;33.07;;;;;;;6.49;99.91;102404.38;5059293;28;20262;-52
2022/03/17 03:08:31;;;;;;;43.53;30.50;;;;;;;6.91;98.10;102388.72;5062251;28;20259;-52
2022/03/17 03:10:57;;;;;;;43.83;31.00;;;;;;;6.76;98.45;102391.63;5068408;28;20254;-51
2022/03/17 03:13:23;;;;;;;46.63;33.00;;;;;;;6.41;99.30;102395.34;5062992;28;20769;-52
2022/03/17 03:15:51;;;;;;;37.87;28.70;;;;;;;6.50;100.00;102403.59;5056893;28;20647;-52
2022/03/17 03:18:17;;;;;;;38.27;29.93;;;;;;;6.41;100.00;102400.56;5063081;28;20245;-53
2022/03/17 03:20:44;;;;;;;46.17;32.53;;;;;;;6.32;100.00;102390.66;5063770;28;20285;-52
2022/03/17 03:23:11;;;;;;;44.47;31.30;;;;;;;6.43;98.29;102396.34;5064108;28;20316;-52
2022/03/17 03:25:37;;;;;;;49.17;35.43;;;;;;;6.19;98.75;102397.03;5063637;28;20235;-52
2022/03/17 03:28:06;;;;;;;41.00;30.50;;;;;;;6.36;100.00;102405.59;5069801;28;20316;-52
2022/03/17 03:30:33;;;;;;;41.00;30.83;;;;;;;6.21;100.00;102408.44;5055202;28;20254;-53
2022/03/17 03:33:01;;;;;;;44.17;31.63;;;;;;;6.30;100.00;102401.84;5068891;28;20275;-52
2022/03/17 03:38:11;;;;;;;42.00;30.83;;;;;;;6.69;98.36;102402.63;5063518;28;20791;-53
2022/03/17 03:40:37;;;;;;;45.13;33.03;;;;;;;6.45;96.64;102408.59;5067600;28;20262;-52
2022/03/17 03:43:03;;;;;;;41.30;30.17;;;;;;;6.82;98.57;102393.59;5066741;28;20259;-52
2022/03/17 03:45:30;;;;;;;42.97;31.67;;;;;;;6.83;95.57;102393.66;5067576;28;20277;-52
2022/03/17 03:47:56;;;;;;;42.93;32.10;;;;;;;6.76;96.99;102394.22;5071629;28;20222;-52
2022/03/17 03:50:25;;;;;;;42.43;32.13;;;;;;;6.82;97.15;102391.00;5067140;28;20258;-52
2022/03/17 03:52:52;;;;;;;43.97;31.27;;;;;;;6.89;96.09;102395.63;5067029;28;20256;-52
2022/03/17 03:55:18;;;;;;;47.10;35.20;;;;;;;6.69;94.98;102386.97;5066927;28;20231;-52
2022/03/17 03:57:46;;;;;;;41.13;31.80;;;;;;;6.67;97.31;102386.03;5066141;28;20695;-52
2022/03/17 04:00:22;;;;;;;42.97;32.43;;;;;;;6.47;95.57;102389.53;5066026;28;20265;-52
2022/03/17 04:02:48;;;;;;;43.80;33.40;;;;;;;6.53;94.60;102390.69;5069117;28;20211;-54
2022/03/17 04:05:17;;;;;;;49.63;35.43;;;;;;;6.47;94.83;102394.75;5066522;28;20266;-52
2022/03/17 04:07:45;;;;;;;42.60;32.57;;;;;;;6.60;96.32;102399.63;5067149;28;20944;-53
2022/03/17 04:10:11;;;;;;;44.00;35.57;;;;;;;6.41;96.31;102401.47;5065791;28;20246;-51
2022/03/17 04:12:38;;;;;;;45.80;35.93;;;;;;;6.54;96.55;102402.88;5066129;28;20328;-52
2022/03/17 04:15:05;;;;;;;48.30;36.93;;;;;;;6.44;94.68;102396.38;5065354;28;20235;-52
2022/03/17 04:17:31;;;;;;;44.30;35.47;;;;;;;6.35;95.27;102395.09;5063248;27;20235;-52
2022/03/17 04:19:57;;;;;;;45.53;36.13;;;;;;;6.49;94.87;102390.47;5065371;28;20227;-51
2022/03/17 04:22:24;;;;;;;47.23;35.03;;;;;;;6.49;95.05;102393.97;5068920;28;20262;-52
2022/03/17 04:24:52;;;;;;;46.80;35.47;;;;;;;6.52;96.40;102394.09;5064822;28;20255;-51
2022/03/17 04:27:18;;;;;;;49.90;35.73;;;;;;;6.44;95.50;102380.72;5065836;28;20227;-52
2022/03/17 04:29:44;;;;;;;46.93;35.80;;;;;;;6.40;93.62;102377.94;5065708;28;20318;-52
2022/03/17 04:32:10;;;;;;;51.47;35.70;;;;;;;6.32;94.63;102381.91;5067422;28;20746;-52
2022/03/17 04:34:37;;;;;;;52.97;38.40;;;;;;;6.17;94.78;102390.84;5066096;28;20285;-52
2022/03/17 04:37:03;;;;;;;43.87;33.50;;;;;;;6.24;96.17;102402.44;5066291;28;20258;-54
2022/03/17 04:39:30;;;;;;;48.70;36.37;;;;;;;6.27;97.16;102397.38;5064965;28;20715;-51
2022/03/17 04:41:57;;;;;;;49.13;36.17;;;;;;;6.25;95.71;102398.13;5059923;28;20277;-52
2022/03/17 04:44:24;;;;;;;45.67;36.00;;;;;;;6.26;95.37;102397.31;5065518;28;20254;-53
2022/03/17 04:46:51;;;;;;;48.93;36.10;;;;;;;6.26;95.39;102397.31;5065464;28;20235;-52
2022/03/17 04:49:17;;;;;;;46.10;35.87;;;;;;;6.30;95.77;102399.22;5070192;28;20301;-51
2022/03/17 04:51:43;;;;;;;50.97;37.47;;;;;;;6.36;95.19;102396.91;5068058;28;20906;-53
2022/03/17 04:54:09;;;;;;;48.60;35.23;;;;;;;6.24;93.97;102398.97;5065683;28;20316;-53
2022/03/17 04:56:35;;;;;;;54.37;38.90;;;;;;;6.33;94.57;102407.19;5065446;28;20235;-51
2022/03/17 04:59:03;;;;;;;49.77;36.63;;;;;;;6.15;95.84;102405.56;5063945;28;20231;-52
2022/03/17 05:01:29;;;;;;;47.90;35.40;;;;;;;6.18;96.36;102403.09;5074197;28;20264;-52
2022/03/17 05:03:55;;;;;;;48.57;36.70;;;;;;;6.14;94.97;102401.19;5073269;28;20246;-53
2022/03/17 05:06:22;;;;;;;50.53;37.43;;;;;;;6.30;96.38;102407.94;5070406;28;20776;-52
2022/03/17 05:08:48;;;;;;;48.17;36.87;;;;;;;6.44;95.49;102422.47;5068380;28;20254;-52
2022/03/17 05:11:14;;;;;;;52.57;37.50;;;;;;;6.21;93.39;102417.97;5068835;28;20326;-53
2022/03/17 05:13:42;;;;;;;48.87;37.83;;;;;;;6.22;93.89;102418.06;5064542;28;20310;-52
2022/03/17 05:16:09;;;;;;;48.47;37.30;;;;;;;6.30;94.89;102413.16;5064736;28;20310;-53
2022/03/17 05:18:36;;;;;;;47.03;35.93;;;;;;;6.33;95.24;102422.84;5063668;28;20822;-52
2022/03/17 05:21:02;;;;;;;44.30;36.13;;;;;;;6.59;95.72;102416.13;5071643;28;20702;-52
2022/03/17 05:23:30;;;;;;;49.03;37.57;;;;;;;6.38;92.82;102421.31;5067584;28;20231;-52
2022/03/17 05:25:57;;;;;;;51.13;38.03;;;;;;;6.58;95.23;102425.66;5064162;28;20242;-53
2022/03/17 05:28:23;;;;;;;48.00;38.37;;;;;;;6.50;93.71;102415.75;5062873;28;20246;-52
2022/03/17 05:30:50;;;;;;;60.87;40.63;;;;;;;6.20;94.36;102424.00;5062872;28;20255;-52
2022/03/17 05:33:17;;;;;;;51.20;38.33;;;;;;;6.36;94.64;102423.88;5063920;28;20259;-53
2022/03/17 05:35:45;;;;;;;55.93;40.43;;;;;;;6.46;92.16;102427.78;5065275;28;20629;-53
2022/03/17 05:38:11;;;;;;;53.17;40.17;;;;;;;6.44;92.76;102432.03;5056205;28;20267;-51
2022/03/17 05:40:38;;;;;;;49.83;39.87;;;;;;;6.55;92.61;102422.94;5066193;28;20315;-53
2022/03/17 05:43:09;;;;;;;52.37;39.00;;;;;;;6.50;93.26;102427.06;5064316;28;20222;-52
2022/03/17 05:45:37;;;;;;;50.20;38.37;;;;;;;6.43;92.83;102425.03;5064386;28;20258;-52
2022/03/17 05:48:06;;;;;;;54.17;38.90;;;;;;;6.36;92.94;102433.41;5064051;28;20600;-52
2022/03/17 05:50:37;;;;;;;58.93;40.73;;;;;;;6.25;93.54;102439.84;5059714;28;20333;-52
2022/03/17 05:53:04;;;;;;;57.03;39.90;;;;;;;6.42;92.79;102433.66;5063049;28;20250;-52
2022/03/17 05:55:30;;;;;;;56.53;40.07;;;;;;;6.37;92.91;102440.41;5065757;28;20266;-52
2022/03/17 05:57:57;;;;;;;54.63;42.03;;;;;;;6.37;92.12;102435.19;5063483;28;20230;-53
2022/03/17 06:00:25;;;;;;;54.47;39.33;;;;;;;6.19;93.51;102441.38;5070787;28;20246;-52
2022/03/17 06:02:51;;;;;;;59.73;41.87;;;;;;;6.33;94.90;102430.66;5063919;28;20329;-53
2022/03/17 06:05:18;;;;;;;56.17;43.77;;;;;;;6.31;93.15;102434.91;5066475;28;20786;-52
2022/03/17 06:07:46;;;;;;;57.17;42.67;;;;;;;6.26;92.30;102431.22;5065909;28;20262;-53
2022/03/17 06:10:14;;;;;;;58.37;41.70;;;;;;;6.38;93.41;102439.56;5062080;28;20692;-52
2022/03/17 06:12:41;;;;;;;56.73;42.93;;;;;;;6.43;92.56;102440.69;5064868;28;20253;-53
2022/03/17 06:15:08;;;;;;;57.87;43.47;;;;;;;6.31;92.03;102440.13;5063779;28;20251;-51
2022/03/17 06:17:42;;;;;;;61.97;42.50;;;;;;;6.29;93.25;102436.59;5064076;28;20247;-52
2022/03/17 06:20:10;;;;;;;51.87;39.60;;;;;;;6.39;92.45;102438.78;5063286;28;20296;-52
2022/03/17 06:22:38;;;;;;;58.70;43.47;;;;;;;6.59;91.56;102432.66;5072512;28;20248;-52
2022/03/17 06:25:08;;;;;;;53.37;40.23;;;;;;;6.42;93.13;102433.66;5066411;28;20219;-52
2022/03/17 06:27:35;;;;;;;52.40;39.53;;;;;;;6.58;91.86;102432.63;5072088;28;20316;-52
2022/03/17 06:30:01;;;;;;;61.17;44.00;;;;;;;6.51;91.70;102433.19;5057690;28;20222;-53
2022/03/17 06:32:28;;;;;;;59.10;41.40;;;;;;;6.65;92.67;102435.53;5063923;28;20255;-52
2022/03/17 06:34:54;;;;;;;56.80;41.63;;;;;;;6.66;93.17;102436.44;5063843;28;20312;-52
2022/03/17 06:37:20;;;;;;;59.53;43.17;;;;;;;6.65;90.83;102430.31;5058444;28;20235;-53
2022/03/17 06:39:48;;;;;;;57.37;42.07;;;;;;;6.78;92.94;102434.34;5063769;28;20227;-52
2022/03/17 06:42:15;;;;;;;58.17;41.33;;;;;;;6.69;91.73;102437.44;5063992;28;20259;-53
2022/03/17 06:44:42;;;;;;;59.70;44.10;;;;;;;6.53;92.41;102436.72;5067435;28;20584;-54
2022/03/17 06:47:08;;;;;;;55.00;43.30;;;;;;;6.56;91.23;102432.53;5063935;28;20819;-52
2022/03/17 06:49:34;;;;;;;54.63;43.60;;;;;;;6.47;92.27;102432.16;5063784;28;20655;-52
2022/03/17 06:52:01;;;;;;;58.33;42.20;;;;;;;6.45;91.65;102439.91;5065831;28;20231;-53
2022/03/17 06:54:27;;;;;;;56.73;42.97;;;;;;;6.83;93.14;102426.69;5064732;28;20365;-52
2022/03/17 06:56:53;;;;;;;60.77;45.40;;;;;;;6.43;91.87;102425.91;5068001;28;20277;-57
2022/03/17 06:59:21;;;;;;;68.73;44.17;;;;;;;6.54;91.47;102425.50;5063188;28;20657;-53
2022/03/17 07:01:48;;;;;;;60.07;44.80;;;;;;;6.61;91.75;102431.03;5067319;28;20242;-52
2022/03/17 07:04:14;;;;;;;60.70;44.67;;;;;;;6.60;94.58;102424.03;5066584;28;21131;-52
2022/03/17 07:06:40;;;;;;;57.10;42.57;;;;;;;6.67;92.41;102425.19;5071364;28;20243;-53
2022/03/17 07:09:07;;;;;;;58.87;44.30;;;;;;;6.55;92.17;102425.53;5066311;28;20629;-50
2022/03/17 07:11:33;;;;;;;70.93;44.70;;;;;;;6.69;93.03;102424.41;5068016;28;20261;-51
2022/03/17 07:13:59;;;;;;;53.67;42.50;;;;;;;6.84;92.68;102425.88;5066696;28;20250;-52
2022/03/17 07:16:27;;;;;;;64.60;44.80;;;;;;;6.91;90.28;102425.28;5068573;28;20313;-53
2022/03/17 07:18:53;;;;;;;57.10;45.10;;;;;;;6.73;90.08;102432.34;5067592;28;20247;-52
2022/03/17 07:21:20;;;;;;;60.40;45.63;;;;;;;6.99;89.77;102429.13;5067035;28;20235;-52
2022/03/17 07:23:47;;;;;;;62.80;45.77;;;;;;;6.89;89.39;102432.19;5070855;28;20277;-51
2022/03/17 07:26:13;;;;;;;64.77;46.63;;;;;;;7.01;89.04;102430.06;5066754;28;20235;-51
2022/03/17 07:28:39;;;;;;;59.07;45.17;;;;;;;6.83;90.88;102431.91;5072729;28;20230;-51
2022/03/17 07:31:06;;;;;;;68.07;46.53;;;;;;;6.91;90.59;102422.69;5069195;28;20243;-50
2022/03/17 07:33:33;;;;;;;65.73;46.07;;;;;;;6.73;90.59;102434.97;5068214;28;20251;-52
2022/03/17 07:36:00;;;;;;;66.63;45.73;;;;;;;7.11;89.45;102431.34;5065185;28;20276;-51
2022/03/17 07:38:26;;;;;;;58.97;43.73;;;;;;;7.03;90.41;102431.03;5070512;28;20500;-51
2022/03/17 07:40:52;;;;;;;69.27;47.97;;;;;;;6.90;89.45;102424.41;5066439;28;20255;-52
2022/03/17 07:43:19;;;;;;;64.27;45.47;;;;;;;6.94;90.05;102436.75;5070992;28;20292;-52
2022/03/17 07:45:46;;;;;;;68.93;46.37;;;;;;;7.02;87.81;102439.69;5066856;28;20780;-51
2022/03/17 07:48:13;;;;;;;58.70;45.10;;;;;;;6.87;89.57;102433.81;5073307;28;20317;-53
2022/03/17 07:50:40;;;;;;;64.90;45.10;;;;;;;6.79;91.04;102445.69;5071532;28;20748;-54
2022/03/17 07:53:07;;;;;;;60.37;44.60;;;;;;;6.94;90.43;102438.47;5066657;28;20298;-53
2022/03/17 07:55:33;;;;;;;61.70;48.00;;;;;;;6.99;90.36;102442.19;5066446;28;20657;-52
2022/03/17 07:58:00;;;;;;;63.47;45.87;;;;;;;7.01;89.18;102448.34;5066684;28;20300;-53
2022/03/17 08:00:26;;;;;;;59.43;42.33;;;;;;;7.18;89.71;102449.03;5062962;28;20243;-53
2022/03/17 08:02:54;;;;;;;62.27;45.43;;;;;;;6.87;88.73;102449.50;5063291;28;20249;-54
2022/03/17 08:05:20;;;;;;;63.17;45.77;;;;;;;7.20;88.82;102454.34;5061387;27;20317;-51
2022/03/17 08:07:48;;;;;;;61.27;44.70;;;;;;;7.06;89.44;102459.00;5063371;28;20243;-52
2022/03/17 08:10:15;;;;;;;60.40;45.70;;;;;;;7.10;88.68;102461.78;5063896;28;20243;-52
2022/03/17 08:12:42;;;;;;;60.47;46.10;;;;;;;7.18;87.68;102462.97;5067164;28;20246;-52
2022/03/17 08:15:10;;;;;;;57.90;44.73;;;;;;;7.23;87.09;102455.34;5065816;28;20284;-51
2022/03/17 08:17:37;;;;;;;58.47;43.73;;;;;;;7.24;88.51;102458.84;5072142;28;20644;-54
2022/03/17 08:20:05;;;;;;;58.37;44.70;;;;;;;7.28;88.26;102453.81;5075388;28;20227;-52
2022/03/17 08:22:31;;;;;;;61.10;44.03;;;;;;;7.36;87.18;102446.25;5058100;28;20318;-53
2022/03/17 08:24:59;;;;;;;62.10;45.13;;;;;;;7.31;86.98;102447.81;5063770;28;20223;-53
2022/03/17 08:27:25;;;;;;;63.27;47.67;;;;;;;7.27;87.76;102443.31;5067472;28;20231;-54
2022/03/17 08:29:52;;;;;;;60.23;45.57;;;;;;;7.21;88.62;102437.81;5067087;28;20265;-52
2022/03/17 08:32:18;;;;;;;57.30;44.70;;;;;;;7.20;87.08;102439.56;5070557;28;20235;-53
2022/03/17 08:34:44;;;;;;;62.20;45.33;;;;;;;7.35;87.20;102434.03;5072195;28;20700;-53
2022/03/17 08:37:11;;;;;;;58.20;43.27;;;;;;;7.41;87.35;102434.28;5068188;28;20239;-52
2022/03/17 08:39:38;;;;;;;55.43;43.50;;;;;;;7.43;86.76;102430.00;5068747;28;20266;-51
2022/03/17 08:42:07;;;;;;;60.97;45.87;;;;;;;7.44;86.46;102423.03;5067873;28;20288;-51
2022/03/17 08:44:33;;;;;;;58.70;44.37;;;;;;;7.47;86.01;102425.78;5071183;28;20258;-54
2022/03/17 08:49:44;;;;;;;60.60;44.07;;;;;;;7.55;84.82;102430.50;5066347;28;20253;-54
2022/03/17 08:52:10;;;;;;;58.10;43.17;;;;;;;7.59;85.29;102435.00;5070785;28;20243;-51
2022/03/17 08:54:36;;;;;;;62.27;44.37;;;;;;;7.64;84.73;102427.31;5071353;28;20858;-53
2022/03/17 08:57:04;;;;;;;66.33;45.17;;;;;;;7.75;85.12;102433.84;5070840;28;20231;-54
2022/03/17 08:59:34;;;;;;;55.30;42.70;;;;;;;7.84;85.62;102430.69;5073037;28;20237;-51
2022/03/17 09:02:02;;;;;;;57.30;41.60;;;;;;;7.82;84.55;102432.34;5073629;28;20235;-53
2022/03/17 09:04:29;;;;;;;59.57;45.37;;;;;;;7.99;83.02;102432.97;5074460;28;20227;-53
2022/03/17 09:06:59;;;;;;;54.63;43.07;;;;;;;7.85;83.71;102435.09;5075243;28;20239;-54
2022/03/17 09:09:26;;;;;;;59.10;44.77;;;;;;;8.00;83.14;102432.13;5072186;28;20235;-51
2022/03/17 09:11:52;;;;;;;58.17;45.40;;;;;;;8.07;82.09;102440.31;5065902;28;20238;-52
2022/03/17 09:14:19;;;;;;;57.47;44.43;;;;;;;7.92;82.30;102429.25;5066378;28;20232;-53
2022/03/17 09:16:47;;;;;;;65.30;44.50;;;;;;;8.03;82.34;102442.72;5062586;28;20227;-52
2022/03/17 09:19:13;;;;;;;58.37;43.70;;;;;;;8.01;83.41;102439.19;5065902;28;20227;-52
2022/03/17 09:21:40;;;;;;;57.40;46.53;;;;;;;7.78;82.31;102431.34;5064078;28;20293;-53
2022/03/17 09:24:07;;;;;;;59.77;42.13;;;;;;;7.94;83.53;102432.81;5062555;28;20274;-53
2022/03/17 09:26:33;;;;;;;62.42;45.85;;;;;;;7.95;83.67;102431.97;5059979;28;21308;-53
2022/03/17 09:29:00;;;;;;;56.47;43.20;;;;;;;8.01;81.93;102429.59;5064084;28;20227;-56
2022/03/17 09:31:26;;;;;;;59.63;41.73;;;;;;;8.14;82.52;102438.75;5063658;28;20328;-54
2022/03/17 09:33:55;;;;;;;49.97;40.23;;;;;;;8.23;83.01;102436.50;5065393;28;20896;-53
2022/03/17 09:36:22;;;;;;;58.63;43.53;;;;;;;8.21;81.75;102437.25;5065693;28;20289;-52
2022/03/17 09:39:39;;;;;;;57.37;43.17;;;;;;;8.34;79.62;102439.50;5066492;28;20699;-51
2022/03/17 09:41:36;;;;;;;54.83;43.20;;;;;;;8.45;79.50;102440.78;5069183;28;20245;-52
2022/03/17 09:44:03;;;;;;;57.10;45.43;;;;;;;8.28;79.22;102448.03;5066144;28;20242;-51
2022/03/17 09:46:31;;;;;;;55.43;44.57;;;;;;;8.34;78.58;102444.72;5067556;28;20732;-53
2022/03/17 09:49:02;;;;;;;56.87;43.63;;;;;;;8.30;79.03;102450.69;5063759;28;20231;-51
2022/03/17 09:51:29;;;;;;;56.50;42.97;;;;;;;8.37;79.22;102444.84;5064389;28;20238;-52
2022/03/17 09:54:00;;;;;;;54.73;42.87;;;;;;;8.32;79.50;102451.66;5063977;28;20223;-51
2022/03/17 09:56:27;;;;;;;57.13;44.47;;;;;;;8.34;78.58;102457.81;5066069;28;21016;-52
2022/03/17 09:58:54;;;;;;;55.97;42.47;;;;;;;8.42;79.06;102456.38;5063231;28;20223;-53
2022/03/17 10:01:22;;;;;;;52.93;40.57;;;;;;;8.33;78.93;102458.66;5070416;27;20238;-55
2022/03/17 10:03:48;;;;;;;53.13;42.53;;;;;;;8.47;78.82;102459.19;5062112;28;20262;-53
2022/03/17 10:06:16;;;;;;;57.97;43.20;;;;;;;8.50;79.48;102454.94;5066938;28;20267;-53
2022/03/17 10:08:42;;;;;;;52.13;41.10;;;;;;;8.52;79.47;102458.50;5060901;28;20696;-54
2022/03/17 10:11:09;;;;;;;64.85;44.60;;;;;;;8.72;78.71;102458.31;5059770;28;20837;-55
2022/03/17 10:13:43;;;;;;;56.77;42.10;;;;;;;8.71;78.17;102457.41;5064387;28;20262;-53
2022/03/17 10:16:12;;;;;;;56.03;44.27;;;;;;;8.85;77.09;102460.50;5064060;28;20260;-53
2022/03/17 10:18:38;;;;;;;55.13;40.73;;;;;;;8.92;76.30;102467.75;5070923;28;20230;-52
2022/03/17 10:21:07;;;;;;;53.07;41.43;;;;;;;8.93;75.79;102471.25;5064092;28;20258;-53
2022/03/17 10:23:35;;;;;;;55.57;41.03;;;;;;;8.95;75.50;102466.91;5069748;28;20247;-53
2022/03/17 10:26:01;;;;;;;54.17;42.60;;;;;;;9.03;74.50;102468.09;5063304;28;20228;-53
2022/03/17 10:28:27;;;;;;;54.97;42.10;;;;;;;9.04;75.77;102467.25;5063256;28;20691;-53
2022/03/17 10:31:04;;;;;;;51.60;41.37;;;;;;;9.04;75.35;102469.88;5070248;28;20652;-53
2022/03/17 10:33:30;;;;;;;57.10;40.93;;;;;;;9.07;74.13;102476.09;5067007;28;20234;-53
2022/03/17 10:36:13;;;;;;;53.77;39.60;;;;;;;9.15;74.94;102470.22;5063813;28;20277;-52
2022/03/17 10:38:43;;;;;;;54.07;41.17;;;;;;;9.35;73.94;102473.50;5061829;28;20227;-52
2022/03/17 10:41:12;;;;;;;52.13;42.67;;;;;;;9.44;73.31;102474.69;5064418;28;20317;-52
2022/03/17 10:43:39;;;;;;;51.00;40.97;;;;;;;9.42;73.79;102476.34;5063607;28;20271;-52
2022/03/17 10:46:06;;;;;;;55.93;43.10;;;;;;;9.48;73.14;102481.78;5068636;28;20231;-52
2022/03/17 10:48:33;;;;;;;46.30;39.57;;;;;;;9.73;72.18;102488.69;5064361;28;20258;-53
2022/03/17 10:50:59;;;;;;;53.87;41.27;;;;;;;9.74;71.32;102484.31;5062381;28;20766;-53
2022/03/17 10:53:27;;;;;;;50.07;41.07;;;;;;;9.74;71.48;102479.09;5065128;28;20712;-53
2022/03/17 10:56:10;;;;;;;49.30;40.20;;;;;;;9.70;72.12;102471.97;5059508;28;20776;-53
2022/03/17 10:58:42;;;;;;;57.47;39.93;;;;;;;9.73;71.01;102482.56;5065536;28;20284;-53
2022/03/17 11:01:08;;;;;;;54.13;40.93;;;;;;;9.52;71.26;102473.19;5065280;28;20238;-52
2022/03/17 11:03:35;;;;;;;56.13;40.40;;;;;;;9.56;71.97;102474.16;5063480;28;20281;-53
2022/03/17 11:06:02;;;;;;;51.00;40.90;;;;;;;9.69;70.43;102470.19;5061518;28;20275;-52
2022/03/17 11:08:28;;;;;;;47.80;36.43;;;;;;;9.65;72.43;102463.97;5059731;28;21005;-52
2022/03/17 11:10:57;;;;;;;49.10;39.90;;;;;;;9.72;70.84;102465.94;5063860;28;20992;-53
2022/03/17 11:13:23;;;;;;;51.37;41.23;;;;;;;9.70;70.20;102472.84;5064031;28;20293;-52
2022/03/17 11:15:57;;;;;;;49.37;39.13;;;;;;;9.67;71.99;102466.63;5059663;28;20239;-53
2022/03/17 11:18:24;;;;;;;52.83;39.27;;;;;;;9.78;69.66;102475.69;5059843;28;20231;-53
2022/03/17 11:21:13;;;;;;;51.57;37.67;;;;;;;9.79;69.35;102470.53;5064399;28;20227;-53
2022/03/17 11:23:55;;;;;;;52.60;37.60;;;;;;;9.82;68.61;102481.94;5061311;28;20302;-53
2022/03/17 11:26:25;;;;;;;45.30;35.60;;;;;;;9.86;68.25;102476.81;5071979;28;20688;-53
2022/03/17 11:28:58;;;;;;;42.20;34.70;;;;;;;9.80;68.29;102468.78;5066234;28;20276;-52
2022/03/17 11:31:27;;;;;;;46.53;38.57;;;;;;;9.86;67.87;102468.06;5069737;28;20822;-51